sensor_id;sensor_type;location;lat;lon;timestamp;temperature;humidity
25991;DHT22;13779;-33.886;151.198;2022-12-29T00:01:29;20.80;99.90
25991;DHT22;13779;-33.886;151.198;2022-12-29T00:03:59;20.90;99.90
25991;DHT22;13779;-33.886;151.198;2022-12-29T00:06:31;20.90;99.90
25991;DHT22;13779;-33.886;151.198;2022-12-29T00:09:01;20.80;99.90
25991;DHT22;13779;-33.886;151.198;2022-12-29T00:11:32;20.80;99.90
25991;DHT22;13779;-33.886;151.198;2022-12-29T00:14:02;20.80;99.90
25991;DHT22;13779;-33.886;151.198;2022-12-29T00:16:53;20.80;99.90
25991;DHT22;13779;-33.886;151.198;2022-12-29T00:19:24;20.80;99.90
25991;DHT22;13779;-33.886;151.198;2022-12-29T00:22:14;20.80;99.90
25991;DHT22;13779;-33.886;151.198;2022-12-29T00:25:04;20.80;99.90
25991;DHT22;13779;-33.886;151.198;2022-12-29T00:27:35;20.80;99.90
25991;DHT22;13779;-33.886;151.198;2022-12-29T00:30:27;20.80;99.90
25991;DHT22;13779;-33.886;151.198;2022-12-29T00:33:18;20.80;99.90
25991;DHT22;13779;-33.886;151.198;2022-12-29T00:36:30;20.70;99.90
25991;DHT22;13779;-33.886;151.198;2022-12-29T00:39:09;20.70;99.90
25991;DHT22;13779;-33.886;151.198;2022-12-29T00:42:07;20.70;99.90
25991;DHT22;13779;-33.886;151.198;2022-12-29T00:44:55;20.70;99.90
25991;DHT22;13779;-33.886;151.198;2022-12-29T00:47:25;20.70;99.90
25991;DHT22;13779;-33.886;151.198;2022-12-29T00:49:55;20.70;99.90
25991;DHT22;13779;-33.886;151.198;2022-12-29T00:52:26;20.70;99.90
25991;DHT22;13779;-33.886;151.198;2022-12-29T00:54:56;20.80;99.90
25991;DHT22;13779;-33.886;151.198;2022-12-29T00:57:26;20.90;99.90
25991;DHT22;13779;-33.886;151.198;2022-12-29T00:59:56;20.90;99.90
25991;DHT22;13779;-33.886;151.198;2022-12-29T01:02:26;20.90;99.90
25991;DHT22;13779;-33.886;151.198;2022-12-29T01:04:58;20.90;99.90
25991;DHT22;13779;-33.886;151.198;2022-12-29T01:07:28;20.90;99.90
25991;DHT22;13779;-33.886;151.198;2022-12-29T01:09:58;20.90;99.90
25991;DHT22;13779;-33.886;151.198;2022-12-29T01:12:40;21.00;99.90
25991;DHT22;13779;-33.886;151.198;2022-12-29T01:15:13;21.00;99.90
25991;DHT22;13779;-33.886;151.198;2022-12-29T01:17:44;21.00;99.90
25991;DHT22;13779;-33.886;151.198;2022-12-29T01:20:15;20.90;99.90
25991;DHT22;13779;-33.886;151.198;2022-12-29T01:22:45;20.90;99.90
25991;DHT22;13779;-33.886;151.198;2022-12-29T01:25:16;20.90;99.90
25991;DHT22;13779;-33.886;151.198;2022-12-29T01:27:46;20.90;99.90
25991;DHT22;13779;-33.886;151.198;2022-12-29T01:30:16;20.90;99.90
25991;DHT22;13779;-33.886;151.198;2022-12-29T01:32:46;20.90;99.90
25991;DHT22;13779;-33.886;151.198;2022-12-29T01:35:16;20.80;99.90
25991;DHT22;13779;-33.886;151.198;2022-12-29T01:37:46;20.90;99.90
25991;DHT22;13779;-33.886;151.198;2022-12-29T01:40:16;20.90;99.90
25991;DHT22;13779;-33.886;151.198;2022-12-29T01:42:46;20.90;99.90
25991;DHT22;13779;-33.886;151.198;2022-12-29T01:45:18;21.00;99.90
25991;DHT22;13779;-33.886;151.198;2022-12-29T01:47:52;21.00;99.90
25991;DHT22;13779;-33.886;151.198;2022-12-29T01:50:30;21.00;99.90
25991;DHT22;13779;-33.886;151.198;2022-12-29T01:55:43;21.00;99.90
25991;DHT22;13779;-33.886;151.198;2022-12-29T01:58:15;21.10;99.90
25991;DHT22;13779;-33.886;151.198;2022-12-29T02:00:47;21.00;99.90
25991;DHT22;13779;-33.886;151.198;2022-12-29T02:03:19;21.10;99.90
25991;DHT22;13779;-33.886;151.198;2022-12-29T02:08:26;21.10;99.90
25991;DHT22;13779;-33.886;151.198;2022-12-29T02:10:59;21.20;99.90
25991;DHT22;13779;-33.886;151.198;2022-12-29T02:13:30;21.10;99.90
25991;DHT22;13779;-33.886;151.198;2022-12-29T02:16:40;21.10;99.90
25991;DHT22;13779;-33.886;151.198;2022-12-29T02:36:53;21.40;99.90
25991;DHT22;13779;-33.886;151.198;2022-12-29T02:39:40;21.40;99.90
25991;DHT22;13779;-33.886;151.198;2022-12-29T02:42:20;21.40;99.90
25991;DHT22;13779;-33.886;151.198;2022-12-29T02:45:04;21.40;99.90
25991;DHT22;13779;-33.886;151.198;2022-12-29T02:53:24;21.50;99.90
25991;DHT22;13779;-33.886;151.198;2022-12-29T02:56:12;21.60;99.90
25991;DHT22;13779;-33.886;151.198;2022-12-29T02:58:43;21.50;99.90
25991;DHT22;13779;-33.886;151.198;2022-12-29T03:04:21;21.50;99.90
25991;DHT22;13779;-33.886;151.198;2022-12-29T03:07:22;21.60;99.90
25991;DHT22;13779;-33.886;151.198;2022-12-29T03:16:05;21.70;99.90
25991;DHT22;13779;-33.886;151.198;2022-12-29T03:18:51;21.70;99.90
25991;DHT22;13779;-33.886;151.198;2022-12-29T03:21:36;21.70;99.90
25991;DHT22;13779;-33.886;151.198;2022-12-29T03:24:31;21.70;99.90
25991;DHT22;13779;-33.886;151.198;2022-12-29T03:27:04;21.80;99.90
25991;DHT22;13779;-33.886;151.198;2022-12-29T03:29:47;21.70;99.90
25991;DHT22;13779;-33.886;151.198;2022-12-29T03:32:49;21.80;99.90
25991;DHT22;13779;-33.886;151.198;2022-12-29T03:35:19;21.80;99.90
25991;DHT22;13779;-33.886;151.198;2022-12-29T03:40:51;21.80;99.90
25991;DHT22;13779;-33.886;151.198;2022-12-29T03:43:23;21.80;99.90
25991;DHT22;13779;-33.886;151.198;2022-12-29T03:45:53;21.80;99.90
25991;DHT22;13779;-33.886;151.198;2022-12-29T03:48:24;21.80;99.90
25991;DHT22;13779;-33.886;151.198;2022-12-29T03:50:54;21.90;99.90
25991;DHT22;13779;-33.886;151.198;2022-12-29T03:53:25;21.90;99.90
25991;DHT22;13779;-33.886;151.198;2022-12-29T03:55:56;21.90;99.90
25991;DHT22;13779;-33.886;151.198;2022-12-29T03:58:27;21.90;99.90
25991;DHT22;13779;-33.886;151.198;2022-12-29T04:00:59;21.90;99.90
25991;DHT22;13779;-33.886;151.198;2022-12-29T04:03:29;21.90;99.90
25991;DHT22;13779;-33.886;151.198;2022-12-29T04:06:00;22.00;99.90
25991;DHT22;13779;-33.886;151.198;2022-12-29T04:08:31;22.00;99.90
25991;DHT22;13779;-33.886;151.198;2022-12-29T04:11:01;22.00;99.90
25991;DHT22;13779;-33.886;151.198;2022-12-29T04:13:33;22.00;99.90
25991;DHT22;13779;-33.886;151.198;2022-12-29T04:16:03;22.00;99.90
25991;DHT22;13779;-33.886;151.198;2022-12-29T04:18:34;22.00;99.90
25991;DHT22;13779;-33.886;151.198;2022-12-29T04:21:04;22.00;99.90
25991;DHT22;13779;-33.886;151.198;2022-12-29T04:23:37;22.10;99.90
25991;DHT22;13779;-33.886;151.198;2022-12-29T04:26:08;22.10;99.90
25991;DHT22;13779;-33.886;151.198;2022-12-29T04:28:38;22.00;99.90
25991;DHT22;13779;-33.886;151.198;2022-12-29T04:31:09;22.10;99.90
25991;DHT22;13779;-33.886;151.198;2022-12-29T04:33:39;22.10;99.90
25991;DHT22;13779;-33.886;151.198;2022-12-29T04:36:10;22.00;99.90
25991;DHT22;13779;-33.886;151.198;2022-12-29T04:38:40;22.00;99.90
25991;DHT22;13779;-33.886;151.198;2022-12-29T04:41:11;22.00;99.90
25991;DHT22;13779;-33.886;151.198;2022-12-29T04:43:42;22.00;99.90
25991;DHT22;13779;-33.886;151.198;2022-12-29T04:46:13;21.90;99.90
25991;DHT22;13779;-33.886;151.198;2022-12-29T04:48:43;21.90;99.90
25991;DHT22;13779;-33.886;151.198;2022-12-29T04:51:14;21.90;99.90
25991;DHT22;13779;-33.886;151.198;2022-12-29T04:53:44;21.90;99.90
25991;DHT22;13779;-33.886;151.198;2022-12-29T04:56:15;21.90;99.90
25991;DHT22;13779;-33.886;151.198;2022-12-29T04:58:45;21.90;99.90
25991;DHT22;13779;-33.886;151.198;2022-12-29T05:01:16;21.90;99.90
25991;DHT22;13779;-33.886;151.198;2022-12-29T05:03:47;21.90;99.90
25991;DHT22;13779;-33.886;151.198;2022-12-29T05:06:19;21.90;99.90
25991;DHT22;13779;-33.886;151.198;2022-12-29T05:08:50;21.90;99.90
25991;DHT22;13779;-33.886;151.198;2022-12-29T05:11:21;21.90;99.90
25991;DHT22;13779;-33.886;151.198;2022-12-29T05:13:52;21.80;99.90
25991;DHT22;13779;-33.886;151.198;2022-12-29T05:16:22;21.80;99.90
25991;DHT22;13779;-33.886;151.198;2022-12-29T05:18:53;21.80;99.90
25991;DHT22;13779;-33.886;151.198;2022-12-29T05:21:23;21.70;99.90
25991;DHT22;13779;-33.886;151.198;2022-12-29T05:23:54;21.70;99.90
25991;DHT22;13779;-33.886;151.198;2022-12-29T05:26:24;21.70;99.90
25991;DHT22;13779;-33.886;151.198;2022-12-29T05:28:55;21.60;99.90
25991;DHT22;13779;-33.886;151.198;2022-12-29T05:31:25;21.60;99.90
25991;DHT22;13779;-33.886;151.198;2022-12-29T05:33:56;21.60;99.90
25991;DHT22;13779;-33.886;151.198;2022-12-29T05:36:26;21.50;99.90
25991;DHT22;13779;-33.886;151.198;2022-12-29T05:39:04;21.50;99.90
25991;DHT22;13779;-33.886;151.198;2022-12-29T05:41:35;21.50;99.90
25991;DHT22;13779;-33.886;151.198;2022-12-29T05:44:05;21.60;99.90
25991;DHT22;13779;-33.886;151.198;2022-12-29T05:46:36;21.60;99.90
25991;DHT22;13779;-33.886;151.198;2022-12-29T05:49:07;21.60;99.90
25991;DHT22;13779;-33.886;151.198;2022-12-29T05:51:37;21.60;99.90
25991;DHT22;13779;-33.886;151.198;2022-12-29T05:54:08;21.60;99.90
25991;DHT22;13779;-33.886;151.198;2022-12-29T05:56:38;21.60;99.90
25991;DHT22;13779;-33.886;151.198;2022-12-29T05:59:09;21.60;99.90
25991;DHT22;13779;-33.886;151.198;2022-12-29T06:01:39;21.60;99.90
25991;DHT22;13779;-33.886;151.198;2022-12-29T06:04:10;21.60;99.90
25991;DHT22;13779;-33.886;151.198;2022-12-29T06:06:40;21.70;99.90
25991;DHT22;13779;-33.886;151.198;2022-12-29T06:09:11;21.70;99.90
25991;DHT22;13779;-33.886;151.198;2022-12-29T06:11:42;21.70;99.90
25991;DHT22;13779;-33.886;151.198;2022-12-29T06:14:12;21.70;99.90
25991;DHT22;13779;-33.886;151.198;2022-12-29T06:16:43;21.70;99.90
25991;DHT22;13779;-33.886;151.198;2022-12-29T06:19:13;21.60;99.90
25991;DHT22;13779;-33.886;151.198;2022-12-29T06:21:44;21.50;99.90
25991;DHT22;13779;-33.886;151.198;2022-12-29T06:24:15;21.60;99.90
25991;DHT22;13779;-33.886;151.198;2022-12-29T06:26:45;21.50;99.90
25991;DHT22;13779;-33.886;151.198;2022-12-29T06:29:16;21.50;99.90
25991;DHT22;13779;-33.886;151.198;2022-12-29T06:31:46;21.50;99.90
25991;DHT22;13779;-33.886;151.198;2022-12-29T06:34:18;21.50;99.90
25991;DHT22;13779;-33.886;151.198;2022-12-29T06:36:49;21.50;99.90
25991;DHT22;13779;-33.886;151.198;2022-12-29T06:39:19;21.40;99.90
25991;DHT22;13779;-33.886;151.198;2022-12-29T06:41:52;21.40;99.90
25991;DHT22;13779;-33.886;151.198;2022-12-29T06:44:23;21.30;99.90
25991;DHT22;13779;-33.886;151.198;2022-12-29T06:46:53;21.30;99.90
25991;DHT22;13779;-33.886;151.198;2022-12-29T06:49:23;21.20;99.90
25991;DHT22;13779;-33.886;151.198;2022-12-29T06:51:53;21.20;99.90
25991;DHT22;13779;-33.886;151.198;2022-12-29T06:54:23;21.20;99.90
25991;DHT22;13779;-33.886;151.198;2022-12-29T06:56:53;21.20;99.90
25991;DHT22;13779;-33.886;151.198;2022-12-29T06:59:24;21.20;99.90
25991;DHT22;13779;-33.886;151.198;2022-12-29T07:01:54;21.20;99.90
25991;DHT22;13779;-33.886;151.198;2022-12-29T07:04:24;21.20;99.90
25991;DHT22;13779;-33.886;151.198;2022-12-29T07:06:54;21.10;99.90
25991;DHT22;13779;-33.886;151.198;2022-12-29T07:09:24;21.20;99.90
25991;DHT22;13779;-33.886;151.198;2022-12-29T07:11:55;21.20;99.90
25991;DHT22;13779;-33.886;151.198;2022-12-29T07:14:25;21.10;99.90
25991;DHT22;13779;-33.886;151.198;2022-12-29T07:16:55;21.10;99.90
25991;DHT22;13779;-33.886;151.198;2022-12-29T07:19:25;21.10;99.90
25991;DHT22;13779;-33.886;151.198;2022-12-29T07:21:56;21.00;99.90
25991;DHT22;13779;-33.886;151.198;2022-12-29T07:24:26;21.10;99.90
25991;DHT22;13779;-33.886;151.198;2022-12-29T07:26:56;21.10;99.90
25991;DHT22;13779;-33.886;151.198;2022-12-29T07:29:27;21.20;99.90
25991;DHT22;13779;-33.886;151.198;2022-12-29T07:31:57;21.10;99.90
25991;DHT22;13779;-33.886;151.198;2022-12-29T07:34:28;21.10;99.90
25991;DHT22;13779;-33.886;151.198;2022-12-29T07:36:58;21.00;99.90
25991;DHT22;13779;-33.886;151.198;2022-12-29T07:39:28;21.00;99.90
25991;DHT22;13779;-33.886;151.198;2022-12-29T07:41:58;21.00;99.90
25991;DHT22;13779;-33.886;151.198;2022-12-29T07:44:34;21.10;99.90
25991;DHT22;13779;-33.886;151.198;2022-12-29T07:47:05;21.10;99.90
25991;DHT22;13779;-33.886;151.198;2022-12-29T07:49:36;21.10;99.90
25991;DHT22;13779;-33.886;151.198;2022-12-29T07:52:06;21.10;99.90
25991;DHT22;13779;-33.886;151.198;2022-12-29T07:54:36;21.00;99.90
25991;DHT22;13779;-33.886;151.198;2022-12-29T07:57:07;21.00;99.90
25991;DHT22;13779;-33.886;151.198;2022-12-29T07:59:37;21.00;99.90
25991;DHT22;13779;-33.886;151.198;2022-12-29T08:02:10;21.00;99.90
25991;DHT22;13779;-33.886;151.198;2022-12-29T08:04:43;21.00;99.90
25991;DHT22;13779;-33.886;151.198;2022-12-29T08:07:13;21.00;99.90
25991;DHT22;13779;-33.886;151.198;2022-12-29T08:09:44;20.90;99.90
25991;DHT22;13779;-33.886;151.198;2022-12-29T08:12:14;20.90;99.90
25991;DHT22;13779;-33.886;151.198;2022-12-29T08:14:44;20.90;99.90
25991;DHT22;13779;-33.886;151.198;2022-12-29T08:17:14;20.90;99.90
25991;DHT22;13779;-33.886;151.198;2022-12-29T08:19:45;20.90;99.90
25991;DHT22;13779;-33.886;151.198;2022-12-29T08:22:15;20.80;99.90
25991;DHT22;13779;-33.886;151.198;2022-12-29T08:24:46;20.80;99.90
25991;DHT22;13779;-33.886;151.198;2022-12-29T08:27:17;20.80;99.90
25991;DHT22;13779;-33.886;151.198;2022-12-29T08:29:48;20.80;99.90
25991;DHT22;13779;-33.886;151.198;2022-12-29T08:32:18;20.80;99.90
25991;DHT22;13779;-33.886;151.198;2022-12-29T08:34:48;20.80;99.90
25991;DHT22;13779;-33.886;151.198;2022-12-29T08:37:19;20.80;99.90
25991;DHT22;13779;-33.886;151.198;2022-12-29T08:39:54;20.80;99.90
25991;DHT22;13779;-33.886;151.198;2022-12-29T08:42:24;20.80;99.90
25991;DHT22;13779;-33.886;151.198;2022-12-29T08:45:00;20.70;99.90
25991;DHT22;13779;-33.886;151.198;2022-12-29T08:47:30;20.70;99.90
25991;DHT22;13779;-33.886;151.198;2022-12-29T08:50:00;20.70;99.90
25991;DHT22;13779;-33.886;151.198;2022-12-29T08:52:30;20.70;99.90
25991;DHT22;13779;-33.886;151.198;2022-12-29T08:55:01;20.70;99.90
25991;DHT22;13779;-33.886;151.198;2022-12-29T08:57:31;20.70;99.90
25991;DHT22;13779;-33.886;151.198;2022-12-29T09:00:04;20.70;99.90
25991;DHT22;13779;-33.886;151.198;2022-12-29T09:02:34;20.70;99.90
25991;DHT22;13779;-33.886;151.198;2022-12-29T09:05:05;20.70;99.90
25991;DHT22;13779;-33.886;151.198;2022-12-29T09:07:36;20.70;99.90
25991;DHT22;13779;-33.886;151.198;2022-12-29T09:10:06;20.70;99.90
25991;DHT22;13779;-33.886;151.198;2022-12-29T09:12:36;20.70;99.90
25991;DHT22;13779;-33.886;151.198;2022-12-29T09:15:07;20.70;99.90
25991;DHT22;13779;-33.886;151.198;2022-12-29T09:17:38;20.70;99.90
25991;DHT22;13779;-33.886;151.198;2022-12-29T09:20:15;20.70;99.90
25991;DHT22;13779;-33.886;151.198;2022-12-29T09:22:49;20.70;99.90
25991;DHT22;13779;-33.886;151.198;2022-12-29T09:25:19;20.70;99.90
25991;DHT22;13779;-33.886;151.198;2022-12-29T09:27:52;20.60;99.90
25991;DHT22;13779;-33.886;151.198;2022-12-29T09:30:23;20.60;99.90
25991;DHT22;13779;-33.886;151.198;2022-12-29T09:32:53;20.70;99.90
25991;DHT22;13779;-33.886;151.198;2022-12-29T09:35:23;20.70;99.90
25991;DHT22;13779;-33.886;151.198;2022-12-29T09:37:54;20.70;99.90
25991;DHT22;13779;-33.886;151.198;2022-12-29T09:40:33;20.70;99.90
25991;DHT22;13779;-33.886;151.198;2022-12-29T09:45:47;20.70;99.90
25991;DHT22;13779;-33.886;151.198;2022-12-29T09:48:29;20.60;99.90
25991;DHT22;13779;-33.886;151.198;2022-12-29T09:51:08;20.60;99.90
25991;DHT22;13779;-33.886;151.198;2022-12-29T09:53:57;20.60;99.90
25991;DHT22;13779;-33.886;151.198;2022-12-29T09:56:28;20.60;99.90
25991;DHT22;13779;-33.886;151.198;2022-12-29T10:02:31;20.60;99.90
25991;DHT22;13779;-33.886;151.198;2022-12-29T10:05:02;20.60;99.90
25991;DHT22;13779;-33.886;151.198;2022-12-29T10:10:29;20.60;99.90
25991;DHT22;13779;-33.886;151.198;2022-12-29T10:17:12;20.60;99.90
25991;DHT22;13779;-33.886;151.198;2022-12-29T10:22:12;20.60;99.90
25991;DHT22;13779;-33.886;151.198;2022-12-29T10:24:49;20.60;99.90
25991;DHT22;13779;-33.886;151.198;2022-12-29T10:27:20;20.60;99.90
25991;DHT22;13779;-33.886;151.198;2022-12-29T10:29:55;20.60;99.90
25991;DHT22;13779;-33.886;151.198;2022-12-29T10:32:58;20.60;99.90
25991;DHT22;13779;-33.886;151.198;2022-12-29T10:35:36;20.60;99.90
25991;DHT22;13779;-33.886;151.198;2022-12-29T10:41:54;20.60;99.90
25991;DHT22;13779;-33.886;151.198;2022-12-29T10:44:29;20.50;99.90
25991;DHT22;13779;-33.886;151.198;2022-12-29T10:47:07;20.50;99.90
25991;DHT22;13779;-33.886;151.198;2022-12-29T10:49:42;20.50;99.90
25991;DHT22;13779;-33.886;151.198;2022-12-29T10:52:14;20.50;99.90
25991;DHT22;13779;-33.886;151.198;2022-12-29T10:54:53;20.50;99.90
25991;DHT22;13779;-33.886;151.198;2022-12-29T10:58:00;20.50;99.90
25991;DHT22;13779;-33.886;151.198;2022-12-29T11:00:23;20.60;99.90
25991;DHT22;13779;-33.886;151.198;2022-12-29T11:06:10;20.50;99.90
25991;DHT22;13779;-33.886;151.198;2022-12-29T11:08:52;20.50;99.90
25991;DHT22;13779;-33.886;151.198;2022-12-29T11:11:26;20.50;99.90
25991;DHT22;13779;-33.886;151.198;2022-12-29T11:13:59;20.50;99.90
25991;DHT22;13779;-33.886;151.198;2022-12-29T11:16:33;20.60;99.90
25991;DHT22;13779;-33.886;151.198;2022-12-29T11:19:05;20.50;99.90
25991;DHT22;13779;-33.886;151.198;2022-12-29T11:21:37;20.50;99.90
25991;DHT22;13779;-33.886;151.198;2022-12-29T11:24:29;20.50;99.90
25991;DHT22;13779;-33.886;151.198;2022-12-29T11:27:24;20.60;99.90
25991;DHT22;13779;-33.886;151.198;2022-12-29T11:29:54;20.60;99.90
25991;DHT22;13779;-33.886;151.198;2022-12-29T11:32:29;20.50;99.90
25991;DHT22;13779;-33.886;151.198;2022-12-29T11:34:59;20.50;99.90
25991;DHT22;13779;-33.886;151.198;2022-12-29T11:37:37;20.50;99.90
25991;DHT22;13779;-33.886;151.198;2022-12-29T11:40:16;20.50;99.90
25991;DHT22;13779;-33.886;151.198;2022-12-29T11:42:48;20.50;99.90
25991;DHT22;13779;-33.886;151.198;2022-12-29T11:45:26;20.50;99.90
25991;DHT22;13779;-33.886;151.198;2022-12-29T11:48:07;20.50;99.90
25991;DHT22;13779;-33.886;151.198;2022-12-29T11:50:41;20.60;99.90
25991;DHT22;13779;-33.886;151.198;2022-12-29T11:55:58;20.50;99.90
25991;DHT22;13779;-33.886;151.198;2022-12-29T11:58:34;20.50;99.90
25991;DHT22;13779;-33.886;151.198;2022-12-29T12:04:07;20.50;99.90
25991;DHT22;13779;-33.886;151.198;2022-12-29T12:06:49;20.40;99.90
25991;DHT22;13779;-33.886;151.198;2022-12-29T12:09:30;20.40;99.90
25991;DHT22;13779;-33.886;151.198;2022-12-29T12:12:02;20.50;99.90
25991;DHT22;13779;-33.886;151.198;2022-12-29T12:14:53;20.40;99.90
25991;DHT22;13779;-33.886;151.198;2022-12-29T12:17:31;20.40;99.90
25991;DHT22;13779;-33.886;151.198;2022-12-29T12:20:43;20.40;99.90
25991;DHT22;13779;-33.886;151.198;2022-12-29T12:26:21;20.40;99.90
25991;DHT22;13779;-33.886;151.198;2022-12-29T12:29:10;20.40;99.90
25991;DHT22;13779;-33.886;151.198;2022-12-29T12:31:47;20.40;99.90
25991;DHT22;13779;-33.886;151.198;2022-12-29T12:34:42;20.40;99.90
25991;DHT22;13779;-33.886;151.198;2022-12-29T12:40:49;20.40;99.90
25991;DHT22;13779;-33.886;151.198;2022-12-29T12:43:38;20.40;99.90
25991;DHT22;13779;-33.886;151.198;2022-12-29T12:52:33;20.40;99.90
25991;DHT22;13779;-33.886;151.198;2022-12-29T12:55:10;20.40;99.90
25991;DHT22;13779;-33.886;151.198;2022-12-29T12:58:32;20.40;99.90
25991;DHT22;13779;-33.886;151.198;2022-12-29T13:01:24;20.40;99.90
25991;DHT22;13779;-33.886;151.198;2022-12-29T13:04:24;20.40;99.90
25991;DHT22;13779;-33.886;151.198;2022-12-29T13:07:04;20.40;99.90
25991;DHT22;13779;-33.886;151.198;2022-12-29T13:15:02;20.40;99.90
25991;DHT22;13779;-33.886;151.198;2022-12-29T13:17:51;20.30;99.90
25991;DHT22;13779;-33.886;151.198;2022-12-29T13:23:26;20.30;99.90
25991;DHT22;13779;-33.886;151.198;2022-12-29T13:26:22;20.30;99.90
25991;DHT22;13779;-33.886;151.198;2022-12-29T13:35:11;20.30;99.90
25991;DHT22;13779;-33.886;151.198;2022-12-29T13:37:55;20.30;99.90
25991;DHT22;13779;-33.886;151.198;2022-12-29T13:40:31;20.30;99.90
25991;DHT22;13779;-33.886;151.198;2022-12-29T13:43:03;20.30;99.90
25991;DHT22;13779;-33.886;151.198;2022-12-29T13:45:34;20.30;99.90
25991;DHT22;13779;-33.886;151.198;2022-12-29T13:48:19;20.30;99.90
25991;DHT22;13779;-33.886;151.198;2022-12-29T13:50:54;20.30;99.90
25991;DHT22;13779;-33.886;151.198;2022-12-29T13:53:41;20.30;99.90
25991;DHT22;13779;-33.886;151.198;2022-12-29T13:56:24;20.30;99.90
25991;DHT22;13779;-33.886;151.198;2022-12-29T14:02:02;20.30;99.90
25991;DHT22;13779;-33.886;151.198;2022-12-29T14:04:33;20.30;99.90
25991;DHT22;13779;-33.886;151.198;2022-12-29T14:07:15;20.30;99.90
25991;DHT22;13779;-33.886;151.198;2022-12-29T14:09:51;20.30;99.90
25991;DHT22;13779;-33.886;151.198;2022-12-29T14:12:50;20.30;99.90
25991;DHT22;13779;-33.886;151.198;2022-12-29T14:15:23;20.30;99.90
25991;DHT22;13779;-33.886;151.198;2022-12-29T14:18:10;20.30;99.90
25991;DHT22;13779;-33.886;151.198;2022-12-29T14:20:55;20.30;99.90
25991;DHT22;13779;-33.886;151.198;2022-12-29T14:23:39;20.20;99.90
25991;DHT22;13779;-33.886;151.198;2022-12-29T14:31:56;20.20;99.90
25991;DHT22;13779;-33.886;151.198;2022-12-29T14:34:31;20.20;99.90
25991;DHT22;13779;-33.886;151.198;2022-12-29T14:37:35;20.20;99.90
25991;DHT22;13779;-33.886;151.198;2022-12-29T14:42:48;20.20;99.90
25991;DHT22;13779;-33.886;151.198;2022-12-29T14:47:50;20.20;99.90
25991;DHT22;13779;-33.886;151.198;2022-12-29T14:56:14;20.20;99.90
25991;DHT22;13779;-33.886;151.198;2022-12-29T14:58:46;20.20;99.90
25991;DHT22;13779;-33.886;151.198;2022-12-29T15:01:37;20.20;99.90
25991;DHT22;13779;-33.886;151.198;2022-12-29T15:04:22;20.10;99.90
25991;DHT22;13779;-33.886;151.198;2022-12-29T15:06:55;20.10;99.90
25991;DHT22;13779;-33.886;151.198;2022-12-29T15:09:30;20.10;99.90
25991;DHT22;13779;-33.886;151.198;2022-12-29T15:14:55;20.10;99.90
25991;DHT22;13779;-33.886;151.198;2022-12-29T15:17:33;20.10;99.90
25991;DHT22;13779;-33.886;151.198;2022-12-29T15:23:12;20.10;99.90
25991;DHT22;13779;-33.886;151.198;2022-12-29T15:25:58;20.20;99.90
25991;DHT22;13779;-33.886;151.198;2022-12-29T15:28:44;20.10;99.90
25991;DHT22;13779;-33.886;151.198;2022-12-29T15:31:22;20.10;99.90
25991;DHT22;13779;-33.886;151.198;2022-12-29T15:34:11;20.10;99.90
25991;DHT22;13779;-33.886;151.198;2022-12-29T15:36:42;20.10;99.90
25991;DHT22;13779;-33.886;151.198;2022-12-29T15:39:28;20.10;99.90
25991;DHT22;13779;-33.886;151.198;2022-12-29T15:44:43;20.10;99.90
25991;DHT22;13779;-33.886;151.198;2022-12-29T15:49:49;20.10;99.90
25991;DHT22;13779;-33.886;151.198;2022-12-29T15:52:21;20.10;99.90
25991;DHT22;13779;-33.886;151.198;2022-12-29T15:54:53;20.10;99.90
25991;DHT22;13779;-33.886;151.198;2022-12-29T15:57:30;20.20;99.90
25991;DHT22;13779;-33.886;151.198;2022-12-29T16:00:02;20.20;99.90
25991;DHT22;13779;-33.886;151.198;2022-12-29T16:02:32;20.20;99.90
25991;DHT22;13779;-33.886;151.198;2022-12-29T16:05:08;20.20;99.90
25991;DHT22;13779;-33.886;151.198;2022-12-29T16:07:56;20.20;99.90
25991;DHT22;13779;-33.886;151.198;2022-12-29T16:10:37;20.20;99.90
25991;DHT22;13779;-33.886;151.198;2022-12-29T16:18:53;20.20;99.90
25991;DHT22;13779;-33.886;151.198;2022-12-29T16:21:33;20.20;99.90
25991;DHT22;13779;-33.886;151.198;2022-12-29T16:24:12;20.20;99.90
25991;DHT22;13779;-33.886;151.198;2022-12-29T16:27:22;20.20;99.90
25991;DHT22;13779;-33.886;151.198;2022-12-29T16:29:56;20.20;99.90
25991;DHT22;13779;-33.886;151.198;2022-12-29T16:32:29;20.20;99.90
25991;DHT22;13779;-33.886;151.198;2022-12-29T16:40:57;20.20;99.90
25991;DHT22;13779;-33.886;151.198;2022-12-29T16:43:33;20.20;99.90
25991;DHT22;13779;-33.886;151.198;2022-12-29T16:48:55;20.20;99.90
25991;DHT22;13779;-33.886;151.198;2022-12-29T16:51:35;20.30;99.90
25991;DHT22;13779;-33.886;151.198;2022-12-29T16:54:06;20.30;99.90
25991;DHT22;13779;-33.886;151.198;2022-12-29T16:56:44;20.30;99.90
25991;DHT22;13779;-33.886;151.198;2022-12-29T17:01:45;20.20;99.90
25991;DHT22;13779;-33.886;151.198;2022-12-29T17:04:16;20.20;99.90
25991;DHT22;13779;-33.886;151.198;2022-12-29T17:06:46;20.20;99.90
25991;DHT22;13779;-33.886;151.198;2022-12-29T17:09:24;20.20;99.90
25991;DHT22;13779;-33.886;151.198;2022-12-29T17:11:57;20.10;99.90
25991;DHT22;13779;-33.886;151.198;2022-12-29T17:14:42;20.10;99.90
25991;DHT22;13779;-33.886;151.198;2022-12-29T17:17:17;20.00;99.90
25991;DHT22;13779;-33.886;151.198;2022-12-29T17:19:53;20.00;99.90
25991;DHT22;13779;-33.886;151.198;2022-12-29T17:22:27;20.00;99.90
25991;DHT22;13779;-33.886;151.198;2022-12-29T17:24:59;20.00;99.90
25991;DHT22;13779;-33.886;151.198;2022-12-29T17:27:53;20.00;99.90
25991;DHT22;13779;-33.886;151.198;2022-12-29T17:30:27;20.00;99.90
25991;DHT22;13779;-33.886;151.198;2022-12-29T17:33:11;20.00;99.90
25991;DHT22;13779;-33.886;151.198;2022-12-29T17:35:42;19.90;99.90
25991;DHT22;13779;-33.886;151.198;2022-12-29T17:38:20;19.90;99.90
25991;DHT22;13779;-33.886;151.198;2022-12-29T17:40:50;19.90;99.90
25991;DHT22;13779;-33.886;151.198;2022-12-29T17:43:21;19.90;99.90
25991;DHT22;13779;-33.886;151.198;2022-12-29T17:45:56;19.90;99.90
25991;DHT22;13779;-33.886;151.198;2022-12-29T17:48:27;19.90;99.90
25991;DHT22;13779;-33.886;151.198;2022-12-29T17:50:57;19.90;99.90
25991;DHT22;13779;-33.886;151.198;2022-12-29T17:53:29;19.90;99.90
25991;DHT22;13779;-33.886;151.198;2022-12-29T17:55:59;19.90;99.90
25991;DHT22;13779;-33.886;151.198;2022-12-29T17:58:31;19.90;99.90
25991;DHT22;13779;-33.886;151.198;2022-12-29T18:01:02;19.80;99.90